sensor_id;sensor_type;location;lat;lon;timestamp;pressure;altitude;pressure_sealevel;temperature;humidity
5296;BME280;2670;42.720;23.336;2022-09-09T00:00:18;-22982.06;;;18.62;99.56
5296;BME280;2670;42.720;23.336;2022-09-09T00:02:52;-22979.72;;;18.54;98.85
5296;BME280;2670;42.720;23.336;2022-09-09T00:05:28;-22980.16;;;18.55;98.75
5296;BME280;2670;42.720;23.336;2022-09-09T00:07:59;-22978.84;;;18.51;99.08
5296;BME280;2670;42.720;23.336;2022-09-09T00:10:28;-22976.66;;;18.43;99.92
5296;BME280;2670;42.720;23.336;2022-09-09T00:13:03;-22977.69;;;18.47;99.86
5296;BME280;2670;42.720;23.336;2022-09-09T00:15:36;-22973.72;;;18.33;100.00
5296;BME280;2670;42.720;23.336;2022-09-09T00:18:14;-22971.38;;;18.25;100.00
5296;BME280;2670;42.720;23.336;2022-09-09T00:20:49;-22971.81;;;18.26;100.00
5296;BME280;2670;42.720;23.336;2022-09-09T00:23:24;-22971.66;;;18.26;100.00
5296;BME280;2670;42.720;23.336;2022-09-09T00:25:58;-22969.91;;;18.20;100.00
5296;BME280;2670;42.720;23.336;2022-09-09T00:28:27;-22968.59;;;18.15;100.00
5296;BME280;2670;42.720;23.336;2022-09-09T00:31:00;-22969.63;;;18.19;100.00
5296;BME280;2670;42.720;23.336;2022-09-09T00:33:30;-22969.91;;;18.20;100.00
5296;BME280;2670;42.720;23.336;2022-09-09T00:36:00;-22968.59;;;18.15;100.00
5296;BME280;2670;42.720;23.336;2022-09-09T00:38:33;-22968.00;;;18.13;100.00
5296;BME280;2670;42.720;23.336;2022-09-09T00:41:07;-22966.53;;;18.08;100.00
5296;BME280;2670;42.720;23.336;2022-09-09T00:43:38;-22969.16;;;18.17;100.00
5296;BME280;2670;42.720;23.336;2022-09-09T00:49:04;-22965.94;;;18.06;100.00
5296;BME280;2670;42.720;23.336;2022-09-09T00:51:45;-22964.03;;;17.99;100.00
5296;BME280;2670;42.720;23.336;2022-09-09T00:54:24;-22963.16;;;17.96;100.00
5296;BME280;2670;42.720;23.336;2022-09-09T00:57:03;-22961.53;;;17.90;100.00
5296;BME280;2670;42.720;23.336;2022-09-09T00:59:37;-22961.53;;;17.90;100.00
5296;BME280;2670;42.720;23.336;2022-09-09T01:02:15;-22962.56;;;17.94;100.00
5296;BME280;2670;42.720;23.336;2022-09-09T01:04:43;-22962.72;;;17.95;100.00
5296;BME280;2670;42.720;23.336;2022-09-09T01:07:16;-22961.84;;;17.91;100.00
5296;BME280;2670;42.720;23.336;2022-09-09T01:09:51;-22959.34;;;17.83;100.00
5296;BME280;2670;42.720;23.336;2022-09-09T01:12:25;-22956.09;;;17.72;100.00
5296;BME280;2670;42.720;23.336;2022-09-09T01:14:57;-22955.66;;;17.70;100.00
5296;BME280;2670;42.720;23.336;2022-09-09T01:17:31;-22954.47;;;17.66;100.00
5296;BME280;2670;42.720;23.336;2022-09-09T01:20:04;-22952.44;;;17.59;100.00
5296;BME280;2670;42.720;23.336;2022-09-09T01:22:37;-22950.81;;;17.53;100.00
5296;BME280;2670;42.720;23.336;2022-09-09T01:25:19;-22948.31;;;17.45;100.00
5296;BME280;2670;42.720;23.336;2022-09-09T01:27:54;-22948.59;;;17.46;100.00
5296;BME280;2670;42.720;23.336;2022-09-09T01:30:23;-22950.53;;;17.52;100.00
5296;BME280;2670;42.720;23.336;2022-09-09T01:32:53;-22952.13;;;17.58;100.00
5296;BME280;2670;42.720;23.336;2022-09-09T01:35:29;-22951.41;;;17.55;100.00
5296;BME280;2670;42.720;23.336;2022-09-09T01:37:58;-22950.81;;;17.53;100.00
5296;BME280;2670;42.720;23.336;2022-09-09T01:40:25;-22948.31;;;17.45;100.00
5296;BME280;2670;42.720;23.336;2022-09-09T01:42:54;-22944.50;;;17.31;100.00
5296;BME280;2670;42.720;23.336;2022-09-09T01:45:22;-22943.63;;;17.28;100.00
5296;BME280;2670;42.720;23.336;2022-09-09T01:47:50;-22943.91;;;17.29;100.00
5296;BME280;2670;42.720;23.336;2022-09-09T01:50:19;-22943.47;;;17.28;100.00
5296;BME280;2670;42.720;23.336;2022-09-09T01:52:49;-22945.97;;;17.36;100.00
5296;BME280;2670;42.720;23.336;2022-09-09T01:55:17;-22946.13;;;17.37;100.00
5296;BME280;2670;42.720;23.336;2022-09-09T01:57:57;-22946.25;;;17.37;100.00
5296;BME280;2670;42.720;23.336;2022-09-09T02:00:29;-22944.34;;;17.31;100.00
5296;BME280;2670;42.720;23.336;2022-09-09T02:03:00;-22942.16;;;17.23;100.00
5296;BME280;2670;42.720;23.336;2022-09-09T02:05:37;-22942.72;;;17.25;100.00
5296;BME280;2670;42.720;23.336;2022-09-09T02:08:06;-22942.72;;;17.25;100.00
5296;BME280;2670;42.720;23.336;2022-09-09T02:10:39;-22940.38;;;17.17;100.00
5296;BME280;2670;42.720;23.336;2022-09-09T02:13:12;-22943.47;;;17.28;100.00
5296;BME280;2670;42.720;23.336;2022-09-09T02:15:43;-22943.47;;;17.28;100.00
5296;BME280;2670;42.720;23.336;2022-09-09T02:18:13;-22945.66;;;17.35;100.00
5296;BME280;2670;42.720;23.336;2022-09-09T02:20:43;-22945.09;;;17.33;100.00
5296;BME280;2670;42.720;23.336;2022-09-09T02:23:12;-22943.19;;;17.27;100.00
5296;BME280;2670;42.720;23.336;2022-09-09T02:25:41;-22941.84;;;17.22;100.00
5296;BME280;2670;42.720;23.336;2022-09-09T02:28:12;-22939.78;;;17.15;100.00
5296;BME280;2670;42.720;23.336;2022-09-09T02:30:42;-22940.38;;;17.17;100.00
5296;BME280;2670;42.720;23.336;2022-09-09T02:33:14;-22937.00;;;17.05;100.00
5296;BME280;2670;42.720;23.336;2022-09-09T02:35:41;-22935.38;;;17.00;100.00
5296;BME280;2670;42.720;23.336;2022-09-09T02:38:13;-22933.47;;;16.93;100.00
5296;BME280;2670;42.720;23.336;2022-09-09T02:40:41;-22932.00;;;16.88;100.00
5296;BME280;2670;42.720;23.336;2022-09-09T02:43:08;-22934.22;;;16.96;100.00
5296;BME280;2670;42.720;23.336;2022-09-09T02:45:42;-22934.81;;;16.98;100.00
5296;BME280;2670;42.720;23.336;2022-09-09T02:48:15;-22934.81;;;16.98;100.00
5296;BME280;2670;42.720;23.336;2022-09-09T02:50:50;-22934.94;;;16.98;100.00
5296;BME280;2670;42.720;23.336;2022-09-09T02:53:24;-22933.91;;;16.95;100.00
5296;BME280;2670;42.720;23.336;2022-09-09T02:55:58;-22932.44;;;16.89;100.00
5296;BME280;2670;42.720;23.336;2022-09-09T02:58:26;-22932.00;;;16.88;100.00
5296;BME280;2670;42.720;23.336;2022-09-09T03:00:55;-22930.25;;;16.82;100.00
5296;BME280;2670;42.720;23.336;2022-09-09T03:03:24;-22931.72;;;16.87;100.00
5296;BME280;2670;42.720;23.336;2022-09-09T03:05:50;-22929.22;;;16.78;100.00
5296;BME280;2670;42.720;23.336;2022-09-09T03:08:17;-22929.50;;;16.79;100.00
5296;BME280;2670;42.720;23.336;2022-09-09T03:10:44;-22929.06;;;16.78;100.00
5296;BME280;2670;42.720;23.336;2022-09-09T03:13:11;-22928.91;;;16.77;100.00
5296;BME280;2670;42.720;23.336;2022-09-09T03:15:38;-22929.50;;;16.79;100.00
5296;BME280;2670;42.720;23.336;2022-09-09T03:18:06;-22932.00;;;16.88;100.00
5296;BME280;2670;42.720;23.336;2022-09-09T03:20:33;-22930.09;;;16.81;100.00
5296;BME280;2670;42.720;23.336;2022-09-09T03:23:00;-22931.72;;;16.87;100.00
5296;BME280;2670;42.720;23.336;2022-09-09T03:25:27;-22928.47;;;16.76;100.00
5296;BME280;2670;42.720;23.336;2022-09-09T03:27:55;-22926.84;;;16.70;100.00
5296;BME280;2670;42.720;23.336;2022-09-09T03:30:23;-22926.72;;;16.69;100.00
5296;BME280;2670;42.720;23.336;2022-09-09T03:32:50;-22924.50;;;16.62;100.00
5296;BME280;2670;42.720;23.336;2022-09-09T03:35:19;-22924.34;;;16.61;100.00
5296;BME280;2670;42.720;23.336;2022-09-09T03:37:45;-22924.78;;;16.63;100.00
5296;BME280;2670;42.720;23.336;2022-09-09T03:40:13;-22925.97;;;16.67;100.00
5296;BME280;2670;42.720;23.336;2022-09-09T03:42:40;-22925.69;;;16.66;100.00
5296;BME280;2670;42.720;23.336;2022-09-09T03:45:08;-22925.25;;;16.64;100.00
5296;BME280;2670;42.720;23.336;2022-09-09T03:47:36;-22925.53;;;16.65;100.00
5296;BME280;2670;42.720;23.336;2022-09-09T03:50:03;-22925.38;;;16.65;100.00
5296;BME280;2670;42.720;23.336;2022-09-09T03:52:35;-22925.38;;;16.65;100.00
5296;BME280;2670;42.720;23.336;2022-09-09T03:55:03;-22924.94;;;16.63;100.00
5296;BME280;2670;42.720;23.336;2022-09-09T03:57:30;-22926.56;;;16.69;100.00
5296;BME280;2670;42.720;23.336;2022-09-09T03:59:57;-22928.03;;;16.74;100.00
5296;BME280;2670;42.720;23.336;2022-09-09T04:02:26;-22924.50;;;16.62;100.00
5296;BME280;2670;42.720;23.336;2022-09-09T04:04:53;-22921.84;;;16.53;100.00
5296;BME280;2670;42.720;23.336;2022-09-09T04:07:19;-22920.69;;;16.49;100.00
5296;BME280;2670;42.720;23.336;2022-09-09T04:09:48;-22923.75;;;16.59;100.00
5296;BME280;2670;42.720;23.336;2022-09-09T04:12:14;-22923.63;;;16.59;100.00
5296;BME280;2670;42.720;23.336;2022-09-09T04:14:41;-22924.78;;;16.63;100.00
5296;BME280;2670;42.720;23.336;2022-09-09T04:17:08;-22924.66;;;16.62;100.00
5296;BME280;2670;42.720;23.336;2022-09-09T04:19:35;-22923.19;;;16.57;100.00
5296;BME280;2670;42.720;23.336;2022-09-09T04:22:02;-22922.88;;;16.56;100.00
5296;BME280;2670;42.720;23.336;2022-09-09T04:24:28;-22921.84;;;16.53;100.00
5296;BME280;2670;42.720;23.336;2022-09-09T04:26:56;-22921.72;;;16.52;100.00
5296;BME280;2670;42.720;23.336;2022-09-09T04:29:23;-22921.72;;;16.52;100.00
5296;BME280;2670;42.720;23.336;2022-09-09T04:31:50;-22919.78;;;16.46;100.00
5296;BME280;2670;42.720;23.336;2022-09-09T04:34:17;-22920.69;;;16.49;100.00
5296;BME280;2670;42.720;23.336;2022-09-09T04:36:43;-22922.16;;;16.54;100.00
5296;BME280;2670;42.720;23.336;2022-09-09T04:39:11;-22923.03;;;16.57;100.00
5296;BME280;2670;42.720;23.336;2022-09-09T04:41:37;-22922.75;;;16.56;100.00
5296;BME280;2670;42.720;23.336;2022-09-09T04:44:05;-22922.28;;;16.54;100.00
5296;BME280;2670;42.720;23.336;2022-09-09T04:46:32;-22925.81;;;16.66;100.00
5296;BME280;2670;42.720;23.336;2022-09-09T04:49:00;-22926.84;;;16.70;100.00
5296;BME280;2670;42.720;23.336;2022-09-09T04:51:27;-22924.78;;;16.63;100.00
5296;BME280;2670;42.720;23.336;2022-09-09T04:53:53;-22923.91;;;16.60;100.00
5296;BME280;2670;42.720;23.336;2022-09-09T04:56:20;-22926.56;;;16.69;100.00
5296;BME280;2670;42.720;23.336;2022-09-09T04:58:47;-22930.25;;;16.82;100.00
5296;BME280;2670;42.720;23.336;2022-09-09T05:01:16;-22932.75;;;16.90;100.00
5296;BME280;2670;42.720;23.336;2022-09-09T05:03:44;-22933.03;;;16.91;100.00
5296;BME280;2670;42.720;23.336;2022-09-09T05:06:13;-22940.09;;;17.16;100.00
5296;BME280;2670;42.720;23.336;2022-09-09T05:08:41;-22937.75;;;17.08;100.00
5296;BME280;2670;42.720;23.336;2022-09-09T05:11:16;-22941.41;;;17.21;100.00
5296;BME280;2670;42.720;23.336;2022-09-09T05:13:44;-22940.53;;;17.17;100.00
5296;BME280;2670;42.720;23.336;2022-09-09T05:16:11;-22940.81;;;17.18;100.00
5296;BME280;2670;42.720;23.336;2022-09-09T05:18:40;-22935.09;;;16.99;100.00
5296;BME280;2670;42.720;23.336;2022-09-09T05:21:08;-22934.81;;;16.98;100.00
5296;BME280;2670;42.720;23.336;2022-09-09T05:23:35;-22938.63;;;17.11;100.00
5296;BME280;2670;42.720;23.336;2022-09-09T05:26:03;-22937.75;;;17.08;100.00
5296;BME280;2670;42.720;23.336;2022-09-09T05:28:30;-22937.44;;;17.07;100.00
5296;BME280;2670;42.720;23.336;2022-09-09T05:30:57;-22939.34;;;17.13;100.00
5296;BME280;2670;42.720;23.336;2022-09-09T05:33:26;-22939.22;;;17.13;100.00
5296;BME280;2670;42.720;23.336;2022-09-09T05:35:58;-22943.03;;;17.26;100.00
5296;BME280;2670;42.720;23.336;2022-09-09T05:38:26;-22939.94;;;17.15;100.00
5296;BME280;2670;42.720;23.336;2022-09-09T05:40:53;-22941.25;;;17.20;100.00
5296;BME280;2670;42.720;23.336;2022-09-09T05:43:20;-22940.81;;;17.18;100.00
5296;BME280;2670;42.720;23.336;2022-09-09T05:45:48;-22940.69;;;17.18;100.00
5296;BME280;2670;42.720;23.336;2022-09-09T05:48:15;-22942.59;;;17.25;100.00
5296;BME280;2670;42.720;23.336;2022-09-09T05:50:42;-22948.03;;;17.43;100.00
5296;BME280;2670;42.720;23.336;2022-09-09T05:53:11;-22945.66;;;17.35;100.00
5296;BME280;2670;42.720;23.336;2022-09-09T05:55:38;-22943.75;;;17.29;100.00
5296;BME280;2670;42.720;23.336;2022-09-09T05:58:05;-22948.47;;;17.45;100.00
5296;BME280;2670;42.720;23.336;2022-09-09T06:00:32;-22953.44;;;17.62;100.00
5296;BME280;2670;42.720;23.336;2022-09-09T06:02:59;-22950.38;;;17.52;100.00
5296;BME280;2670;42.720;23.336;2022-09-09T06:05:25;-22950.66;;;17.53;100.00
5296;BME280;2670;42.720;23.336;2022-09-09T06:07:54;-22952.88;;;17.60;100.00
5296;BME280;2670;42.720;23.336;2022-09-09T06:10:22;-22953.31;;;17.62;100.00
5296;BME280;2670;42.720;23.336;2022-09-09T06:12:52;-22958.91;;;17.81;100.00
5296;BME280;2670;42.720;23.336;2022-09-09T06:15:19;-22965.94;;;18.06;100.00
5296;BME280;2670;42.720;23.336;2022-09-09T06:17:46;-22961.53;;;17.90;100.00
5296;BME280;2670;42.720;23.336;2022-09-09T06:20:14;-22963.28;;;17.97;100.00
5296;BME280;2670;42.720;23.336;2022-09-09T06:22:41;-22963.00;;;17.96;100.00
5296;BME280;2670;42.720;23.336;2022-09-09T06:25:08;-22966.22;;;18.07;100.00
5296;BME280;2670;42.720;23.336;2022-09-09T06:27:37;-22970.78;;;18.23;100.00
5296;BME280;2670;42.720;23.336;2022-09-09T06:30:05;-22974.31;;;18.35;98.26
5296;BME280;2670;42.720;23.336;2022-09-09T06:32:33;-22975.78;;;18.40;98.66
5296;BME280;2670;42.720;23.336;2022-09-09T06:35:02;-22974.31;;;18.35;98.12
5296;BME280;2670;42.720;23.336;2022-09-09T06:37:29;-22975.63;;;18.39;97.91
5296;BME280;2670;42.720;23.336;2022-09-09T06:39:56;-22976.06;;;18.41;97.89
5296;BME280;2670;42.720;23.336;2022-09-09T06:42:23;-22977.97;;;18.48;98.17
5296;BME280;2670;42.720;23.336;2022-09-09T06:44:51;-22976.81;;;18.44;97.37
5296;BME280;2670;42.720;23.336;2022-09-09T06:47:18;-22984.28;;;18.70;95.00
5296;BME280;2670;42.720;23.336;2022-09-09T06:49:45;-22985.75;;;18.75;95.50
5296;BME280;2670;42.720;23.336;2022-09-09T06:52:12;-22984.00;;;18.69;96.49
5296;BME280;2670;42.720;23.336;2022-09-09T06:54:38;-22986.91;;;18.79;98.05
5296;BME280;2670;42.720;23.336;2022-09-09T06:57:05;-22993.22;;;19.01;95.70
5296;BME280;2670;42.720;23.336;2022-09-09T06:59:33;-22997.91;;;19.17;93.73
5296;BME280;2670;42.720;23.336;2022-09-09T07:02:01;-22999.53;;;19.23;93.29
5296;BME280;2670;42.720;23.336;2022-09-09T07:04:28;-22999.69;;;19.23;92.45
5296;BME280;2670;42.720;23.336;2022-09-09T07:06:55;-23002.47;;;19.33;91.74
5296;BME280;2670;42.720;23.336;2022-09-09T07:09:22;-23001.88;;;19.31;92.45
5296;BME280;2670;42.720;23.336;2022-09-09T07:11:50;-23004.22;;;19.39;94.03
5296;BME280;2670;42.720;23.336;2022-09-09T07:14:18;-23005.09;;;19.42;91.83
5296;BME280;2670;42.720;23.336;2022-09-09T07:16:46;-23004.38;;;19.39;92.20
5296;BME280;2670;42.720;23.336;2022-09-09T07:19:14;-23006.84;;;19.48;92.48
5296;BME280;2670;42.720;23.336;2022-09-09T07:21:42;-23012.00;;;19.66;87.97
5296;BME280;2670;42.720;23.336;2022-09-09T07:24:09;-23010.06;;;19.59;90.10
5296;BME280;2670;42.720;23.336;2022-09-09T07:26:37;-23011.84;;;19.65;91.31
5296;BME280;2670;42.720;23.336;2022-09-09T07:29:04;-23010.81;;;19.62;90.44
5296;BME280;2670;42.720;23.336;2022-09-09T07:31:33;-23019.44;;;19.92;92.66
5296;BME280;2670;42.720;23.336;2022-09-09T07:34:00;-23023.25;;;20.05;89.85
5296;BME280;2670;42.720;23.336;2022-09-09T07:36:30;-23023.84;;;20.07;93.05
5296;BME280;2670;42.720;23.336;2022-09-09T07:38:59;-23026.91;;;20.18;91.36
5296;BME280;2670;42.720;23.336;2022-09-09T07:41:28;-23030.72;;;20.31;86.36
5296;BME280;2670;42.720;23.336;2022-09-09T07:43:55;-23031.47;;;20.34;87.59
5296;BME280;2670;42.720;23.336;2022-09-09T07:46:25;-23033.34;;;20.40;89.73
5296;BME280;2670;42.720;23.336;2022-09-09T07:48:54;-23036.59;;;20.52;89.97
5296;BME280;2670;42.720;23.336;2022-09-09T07:51:24;-23039.50;;;20.62;85.11
5296;BME280;2670;42.720;23.336;2022-09-09T07:53:54;-23042.00;;;20.71;86.34
5296;BME280;2670;42.720;23.336;2022-09-09T07:56:22;-23045.94;;;20.84;83.37
5296;BME280;2670;42.720;23.336;2022-09-09T07:58:50;-23043.75;;;20.77;86.46
5296;BME280;2670;42.720;23.336;2022-09-09T08:01:19;-23048.56;;;20.94;83.18
5296;BME280;2670;42.720;23.336;2022-09-09T08:03:51;-23051.06;;;21.02;82.55
5296;BME280;2670;42.720;23.336;2022-09-09T08:06:18;-23056.63;;;21.22;80.58
5296;BME280;2670;42.720;23.336;2022-09-09T08:08:49;-23053.41;;;21.10;83.77
5296;BME280;2670;42.720;23.336;2022-09-09T08:11:18;-23052.97;;;21.09;84.94
5296;BME280;2670;42.720;23.336;2022-09-09T08:13:45;-23057.50;;;21.25;80.11
5296;BME280;2670;42.720;23.336;2022-09-09T08:16:15;-23054.56;;;21.14;80.88
5296;BME280;2670;42.720;23.336;2022-09-09T08:18:42;-23058.06;;;21.27;84.18
5296;BME280;2670;42.720;23.336;2022-09-09T08:21:12;-23059.38;;;21.31;86.07
5296;BME280;2670;42.720;23.336;2022-09-09T08:23:39;-23063.63;;;21.46;86.24
5296;BME280;2670;42.720;23.336;2022-09-09T08:26:10;-23067.28;;;21.59;83.97
5296;BME280;2670;42.720;23.336;2022-09-09T08:28:39;-23067.72;;;21.60;82.03
5296;BME280;2670;42.720;23.336;2022-09-09T08:31:08;-23077.66;;;21.95;83.87
5296;BME280;2670;42.720;23.336;2022-09-09T08:33:35;-23079.25;;;22.01;79.40
5296;BME280;2670;42.720;23.336;2022-09-09T08:36:04;-23079.56;;;22.02;82.34
5296;BME280;2670;42.720;23.336;2022-09-09T08:38:32;-23084.81;;;22.20;78.67
5296;BME280;2670;42.720;23.336;2022-09-09T08:41:09;-23085.69;;;22.23;82.40
5296;BME280;2670;42.720;23.336;2022-09-09T08:43:44;-23089.19;;;22.35;78.85
5296;BME280;2670;42.720;23.336;2022-09-09T08:46:16;-23094.28;;;22.53;77.13
5296;BME280;2670;42.720;23.336;2022-09-09T08:48:52;-23098.66;;;22.69;78.21
5296;BME280;2670;42.720;23.336;2022-09-09T08:51:26;-23096.03;;;22.59;79.83
5296;BME280;2670;42.720;23.336;2022-09-09T08:53:54;-23098.22;;;22.67;80.78
5296;BME280;2670;42.720;23.336;2022-09-09T08:56:23;-23098.66;;;22.69;79.89
5296;BME280;2670;42.720;23.336;2022-09-09T08:58:54;-23100.56;;;22.75;79.69
5296;BME280;2670;42.720;23.336;2022-09-09T09:01:42;-23103.19;;;22.84;81.98
5296;BME280;2670;42.720;23.336;2022-09-09T09:04:26;-23102.31;;;22.81;80.53
5296;BME280;2670;42.720;23.336;2022-09-09T09:07:06;-23106.69;;;22.97;79.11
5296;BME280;2670;42.720;23.336;2022-09-09T09:09:40;-23105.81;;;22.94;80.55
5296;BME280;2670;42.720;23.336;2022-09-09T09:12:16;-23109.03;;;23.05;80.37
5296;BME280;2670;42.720;23.336;2022-09-09T09:14:47;-23113.25;;;23.20;82.22
5296;BME280;2670;42.720;23.336;2022-09-09T09:17:16;-23118.66;;;23.39;76.10
5296;BME280;2670;42.720;23.336;2022-09-09T09:19:45;-23117.03;;;23.33;77.10
5296;BME280;2670;42.720;23.336;2022-09-09T09:22:17;-23120.97;;;23.47;77.36
5296;BME280;2670;42.720;23.336;2022-09-09T09:24:51;-23124.63;;;23.59;76.72
5296;BME280;2670;42.720;23.336;2022-09-09T09:27:24;-23120.09;;;23.44;79.08
5296;BME280;2670;42.720;23.336;2022-09-09T09:29:56;-23119.66;;;23.42;77.19
5296;BME280;2670;42.720;23.336;2022-09-09T09:32:27;-23118.22;;;23.37;77.26
5296;BME280;2670;42.720;23.336;2022-09-09T09:34:56;-23126.06;;;23.65;75.04
5296;BME280;2670;42.720;23.336;2022-09-09T09:37:28;-23123.88;;;23.57;76.79
5296;BME280;2670;42.720;23.336;2022-09-09T09:39:56;-23129.28;;;23.76;74.93
5296;BME280;2670;42.720;23.336;2022-09-09T09:42:23;-23129.88;;;23.78;74.64
5296;BME280;2670;42.720;23.336;2022-09-09T09:44:50;-23123.59;;;23.56;77.10
5296;BME280;2670;42.720;23.336;2022-09-09T09:47:20;-23123.31;;;23.55;77.99
5296;BME280;2670;42.720;23.336;2022-09-09T09:49:54;-23131.31;;;23.83;75.38
5296;BME280;2670;42.720;23.336;2022-09-09T09:52:22;-23130.75;;;23.81;78.56
5296;BME280;2670;42.720;23.336;2022-09-09T09:54:50;-23128.56;;;23.73;78.35
5296;BME280;2670;42.720;23.336;2022-09-09T09:57:23;-23128.28;;;23.72;77.12
5296;BME280;2670;42.720;23.336;2022-09-09T10:00:00;-23124.63;;;23.59;77.22
5296;BME280;2670;42.720;23.336;2022-09-09T10:02:37;-23126.38;;;23.66;77.17
5296;BME280;2670;42.720;23.336;2022-09-09T10:05:12;-23134.66;;;23.95;74.65
5296;BME280;2670;42.720;23.336;2022-09-09T10:07:39;-23133.66;;;23.91;75.77
5296;BME280;2670;42.720;23.336;2022-09-09T10:10:10;-23134.66;;;23.95;74.96
5296;BME280;2670;42.720;23.336;2022-09-09T10:12:47;-23136.84;;;24.02;74.60
5296;BME280;2670;42.720;23.336;2022-09-09T10:15:31;-23133.38;;;23.90;75.24
5296;BME280;2670;42.720;23.336;2022-09-09T10:18:09;-23128.28;;;23.72;76.98
5296;BME280;2670;42.720;23.336;2022-09-09T10:20:44;-23123.88;;;23.57;77.43
5296;BME280;2670;42.720;23.336;2022-09-09T10:23:28;-23126.06;;;23.65;78.07
5296;BME280;2670;42.720;23.336;2022-09-09T10:26:11;-23126.22;;;23.65;76.76
5296;BME280;2670;42.720;23.336;2022-09-09T10:29:00;-23124.19;;;23.58;79.96
5296;BME280;2670;42.720;23.336;2022-09-09T10:31:36;-23123.88;;;23.57;81.47
5296;BME280;2670;42.720;23.336;2022-09-09T10:34:14;-23129.72;;;23.77;76.25
5296;BME280;2670;42.720;23.336;2022-09-09T10:36:47;-23130.88;;;23.81;75.64
5296;BME280;2670;42.720;23.336;2022-09-09T10:39:25;-23130.00;;;23.78;77.75
5296;BME280;2670;42.720;23.336;2022-09-09T10:42:01;-23136.13;;;24.00;74.74
5296;BME280;2670;42.720;23.336;2022-09-09T10:44:42;-23137.59;;;24.05;75.28
5296;BME280;2670;42.720;23.336;2022-09-09T10:47:30;-23137.00;;;24.03;75.61
5296;BME280;2670;42.720;23.336;2022-09-09T10:50:13;-23133.06;;;23.89;75.92
5296;BME280;2670;42.720;23.336;2022-09-09T10:52:51;-23134.09;;;23.93;75.38
5296;BME280;2670;42.720;23.336;2022-09-09T10:55:24;-23132.63;;;23.88;76.33
5296;BME280;2670;42.720;23.336;2022-09-09T10:57:54;-23128.13;;;23.72;77.98
5296;BME280;2670;42.720;23.336;2022-09-09T11:00:24;-23125.50;;;23.63;78.71
5296;BME280;2670;42.720;23.336;2022-09-09T11:02:56;-23126.81;;;23.67;77.60
5296;BME280;2670;42.720;23.336;2022-09-09T11:05:29;-23130.31;;;23.79;78.05
5296;BME280;2670;42.720;23.336;2022-09-09T11:07:59;-23128.41;;;23.73;77.21
5296;BME280;2670;42.720;23.336;2022-09-09T11:10:34;-23132.50;;;23.87;76.80
5296;BME280;2670;42.720;23.336;2022-09-09T11:13:10;-23138.59;;;24.08;74.56
5296;BME280;2670;42.720;23.336;2022-09-09T11:15:43;-23135.25;;;23.97;76.21
5296;BME280;2670;42.720;23.336;2022-09-09T11:18:13;-23130.16;;;23.79;76.61
5296;BME280;2670;42.720;23.336;2022-09-09T11:20:45;-23129.72;;;23.77;77.75
5296;BME280;2670;42.720;23.336;2022-09-09T11:23:17;-23134.81;;;23.95;76.30
5296;BME280;2670;42.720;23.336;2022-09-09T11:25:52;-23139.47;;;24.11;76.28
5296;BME280;2670;42.720;23.336;2022-09-09T11:28:38;-23139.47;;;24.11;77.46
5296;BME280;2670;42.720;23.336;2022-09-09T11:31:24;-23137.28;;;24.04;78.38
5296;BME280;2670;42.720;23.336;2022-09-09T11:34:10;-23138.75;;;24.09;77.20
5296;BME280;2670;42.720;23.336;2022-09-09T11:37:07;-23135.84;;;23.99;78.88
5296;BME280;2670;42.720;23.336;2022-09-09T11:39:48;-23140.63;;;24.16;78.93
5296;BME280;2670;42.720;23.336;2022-09-09T11:42:20;-23136.28;;;24.00;79.13
5296;BME280;2670;42.720;23.336;2022-09-09T11:44:47;-23144.56;;;24.29;76.53
5296;BME280;2670;42.720;23.336;2022-09-09T11:47:22;-23138.03;;;24.06;77.66
5296;BME280;2670;42.720;23.336;2022-09-09T11:49:49;-23137.59;;;24.05;79.10
5296;BME280;2670;42.720;23.336;2022-09-09T11:52:24;-23141.66;;;24.19;78.94
5296;BME280;2670;42.720;23.336;2022-09-09T11:54:55;-23141.38;;;24.18;81.08
5296;BME280;2670;42.720;23.336;2022-09-09T11:57:26;-23140.78;;;24.16;78.66
5296;BME280;2670;42.720;23.336;2022-09-09T11:59:57;-23149.97;;;24.48;77.28
5296;BME280;2670;42.720;23.336;2022-09-09T12:02:25;-23147.34;;;24.39;80.11
5296;BME280;2670;42.720;23.336;2022-09-09T12:04:59;-23149.09;;;24.45;77.93
5296;BME280;2670;42.720;23.336;2022-09-09T12:07:35;-23156.50;;;24.71;76.02
5296;BME280;2670;42.720;23.336;2022-09-09T12:10:05;-23153.88;;;24.62;78.08
5296;BME280;2670;42.720;23.336;2022-09-09T12:12:45;-23155.91;;;24.69;78.90
5296;BME280;2670;42.720;23.336;2022-09-09T12:15:27;-23158.84;;;24.79;77.42
5296;BME280;2670;42.720;23.336;2022-09-09T12:17:55;-23160.28;;;24.84;76.54
5296;BME280;2670;42.720;23.336;2022-09-09T12:20:23;-23162.19;;;24.91;76.64
5296;BME280;2670;42.720;23.336;2022-09-09T12:23:24;-23156.66;;;24.72;78.73
5296;BME280;2670;42.720;23.336;2022-09-09T12:26:07;-23159.56;;;24.82;79.44
5296;BME280;2670;42.720;23.336;2022-09-09T12:28:50;-23158.84;;;24.79;79.36
5296;BME280;2670;42.720;23.336;2022-09-09T12:31:22;-23164.06;;;24.98;76.67
5296;BME280;2670;42.720;23.336;2022-09-09T12:33:52;-23163.63;;;24.96;76.12
5296;BME280;2670;42.720;23.336;2022-09-09T12:36:21;-23166.97;;;25.08;76.23
5296;BME280;2670;42.720;23.336;2022-09-09T12:38:50;-23165.81;;;25.04;76.29
5296;BME280;2670;42.720;23.336;2022-09-09T12:41:22;-23165.22;;;25.02;76.78
5296;BME280;2670;42.720;23.336;2022-09-09T12:43:49;-23163.91;;;24.97;76.90
5296;BME280;2670;42.720;23.336;2022-09-09T12:46:23;-23164.06;;;24.98;77.61
5296;BME280;2670;42.720;23.336;2022-09-09T12:48:52;-23163.50;;;24.96;79.56
5296;BME280;2670;42.720;23.336;2022-09-09T12:51:24;-23162.75;;;24.93;77.66
5296;BME280;2670;42.720;23.336;2022-09-09T12:53:54;-23163.03;;;24.94;78.12
5296;BME280;2670;42.720;23.336;2022-09-09T12:56:23;-23161.44;;;24.89;80.11
5296;BME280;2670;42.720;23.336;2022-09-09T12:58:54;-23160.16;;;24.84;80.65
5296;BME280;2670;42.720;23.336;2022-09-09T13:01:23;-23162.31;;;24.92;78.13
5296;BME280;2670;42.720;23.336;2022-09-09T13:03:50;-23173.38;;;25.30;75.55
5296;BME280;2670;42.720;23.336;2022-09-09T13:06:20;-23169.59;;;25.17;76.77
5296;BME280;2670;42.720;23.336;2022-09-09T13:08:48;-23168.00;;;25.12;77.55
5296;BME280;2670;42.720;23.336;2022-09-09T13:11:18;-23167.28;;;25.09;79.26
5296;BME280;2670;42.720;23.336;2022-09-09T13:13:51;-23170.19;;;25.19;76.54
5296;BME280;2670;42.720;23.336;2022-09-09T13:16:20;-23167.13;;;25.08;79.34